createdAt,value
2019-06-20T00:00:08.460Z,99.90
2019-06-20T00:03:17.913Z,99.90
2019-06-20T00:06:26.305Z,99.90
2019-06-20T00:09:35.285Z,99.90
2019-06-20T00:12:59.453Z,99.90
2019-06-20T00:15:55.797Z,99.90
2019-06-20T00:19:03.747Z,99.90
2019-06-20T00:22:12.098Z,99.90
2019-06-20T00:25:19.850Z,99.90
2019-06-20T00:28:27.772Z,99.90
2019-06-20T00:31:36.116Z,99.90
2019-06-20T00:34:43.855Z,99.90
2019-06-20T00:37:51.924Z,99.90
2019-06-20T00:40:59.595Z,99.90
2019-06-20T00:44:07.382Z,99.90
2019-06-20T00:47:15.163Z,99.90
2019-06-20T00:50:22.984Z,99.90
2019-06-20T00:53:31.735Z,99.90
2019-06-20T00:56:39.492Z,99.90
2019-06-20T00:59:47.473Z,99.90
2019-06-20T01:02:55.607Z,99.90
2019-06-20T01:06:03.464Z,99.90
2019-06-20T01:09:11.186Z,99.90
2019-06-20T01:12:19.111Z,99.90
2019-06-20T01:15:27.176Z,99.90
2019-06-20T01:18:35.004Z,99.90
2019-06-20T01:21:42.831Z,99.90
2019-06-20T01:24:50.569Z,99.90
2019-06-20T01:27:58.768Z,99.90
2019-06-20T01:31:12.574Z,99.90
2019-06-20T01:34:21.458Z,99.90
2019-06-20T01:37:29.263Z,99.90
2019-06-20T01:40:37.218Z,99.90
2019-06-20T01:43:50.640Z,99.90
2019-06-20T01:46:54.667Z,99.90
2019-06-20T01:50:02.815Z,99.90
2019-06-20T01:53:10.541Z,99.90
2019-06-20T01:56:18.285Z,99.90
2019-06-20T01:59:25.998Z,99.90
2019-06-20T02:02:33.682Z,99.90
2019-06-20T02:05:41.475Z,99.90
2019-06-20T02:08:49.240Z,99.90
2019-06-20T02:11:57.006Z,99.90
2019-06-20T02:15:05.050Z,99.90
2019-06-20T02:18:13.014Z,99.90
2019-06-20T02:21:20.752Z,99.90
2019-06-20T02:24:28.492Z,99.90
2019-06-20T02:27:36.145Z,99.90
2019-06-20T02:30:44.118Z,99.90
2019-06-20T02:33:52.923Z,99.90
2019-06-20T02:37:00.589Z,99.90
2019-06-20T02:40:08.591Z,99.90
2019-06-20T02:43:16.462Z,99.90
2019-06-20T02:46:24.360Z,99.90
2019-06-20T02:49:32.369Z,99.90
2019-06-20T02:52:40.472Z,99.90
2019-06-20T02:55:48.205Z,99.90
2019-06-20T02:58:55.966Z,99.90
2019-06-20T03:02:03.679Z,99.90
2019-06-20T03:05:12.876Z,99.90
2019-06-20T03:08:20.682Z,99.90
2019-06-20T03:11:28.440Z,99.90
2019-06-20T03:14:44.923Z,99.90
2019-06-20T03:17:45.634Z,99.90
2019-06-20T03:20:53.581Z,99.90
2019-06-20T03:24:02.213Z,99.90
2019-06-20T03:27:09.881Z,99.90
2019-06-20T03:30:17.991Z,99.90
2019-06-20T03:33:26.207Z,99.90
2019-06-20T03:36:34.005Z,99.90
2019-06-20T03:39:41.751Z,99.90
2019-06-20T03:42:50.688Z,99.90
2019-06-20T03:46:01.734Z,99.90
2019-06-20T03:49:09.750Z,99.90
2019-06-20T03:52:17.409Z,99.90
2019-06-20T03:55:26.024Z,99.90
2019-06-20T03:58:33.694Z,99.90
2019-06-20T04:01:41.489Z,99.90
2019-06-20T04:04:49.250Z,99.90
2019-06-20T04:07:57.334Z,99.90
2019-06-20T04:11:05.091Z,99.90
2019-06-20T04:14:13.177Z,99.90
2019-06-20T04:17:20.820Z,99.90
2019-06-20T04:20:28.837Z,99.90
2019-06-20T04:23:36.601Z,99.90
2019-06-20T04:26:44.471Z,99.90
2019-06-20T04:29:52.286Z,99.90
2019-06-20T04:33:00.049Z,99.90
2019-06-20T04:36:07.821Z,99.90
2019-06-20T04:39:19.396Z,99.90
2019-06-20T04:42:25.367Z,99.90
2019-06-20T04:45:42.212Z,99.90
2019-06-20T04:48:49.907Z,99.90
2019-06-20T04:51:57.722Z,99.90
2019-06-20T04:55:05.744Z,99.90
2019-06-20T04:58:14.576Z,99.90
2019-06-20T05:01:22.413Z,99.90
2019-06-20T05:04:30.151Z,99.90
2019-06-20T05:07:38.030Z,99.90
2019-06-20T05:10:45.756Z,99.90
2019-06-20T05:13:53.493Z,99.90
2019-06-20T05:17:01.354Z,99.90
2019-06-20T05:20:09.205Z,99.90
2019-06-20T05:23:16.940Z,99.90
2019-06-20T05:26:25.100Z,99.90
2019-06-20T05:29:32.902Z,99.90
2019-06-20T05:32:42.059Z,99.90
2019-06-20T05:35:50.245Z,99.90
2019-06-20T05:38:57.965Z,99.90
2019-06-20T05:42:05.952Z,99.90
2019-06-20T05:45:14.370Z,99.90
2019-06-20T05:48:22.121Z,99.90
2019-06-20T05:51:30.333Z,99.90
2019-06-20T05:54:38.237Z,99.90
2019-06-20T05:57:45.989Z,99.90
2019-06-20T06:00:54.101Z,99.90
2019-06-20T06:04:01.757Z,99.90
2019-06-20T06:07:09.594Z,99.90
2019-06-20T06:10:17.472Z,99.90
2019-06-20T06:13:25.551Z,99.90
2019-06-20T06:16:33.299Z,99.90
2019-06-20T06:19:41.042Z,99.90
2019-06-20T06:22:48.793Z,99.90
2019-06-20T06:25:56.795Z,99.90
2019-06-20T06:29:04.746Z,99.90
2019-06-20T06:32:13.491Z,99.90
2019-06-20T06:35:21.553Z,99.90
2019-06-20T06:38:29.645Z,99.90
2019-06-20T06:41:37.722Z,99.90
2019-06-20T06:44:45.470Z,99.90
2019-06-20T06:47:53.453Z,99.90
2019-06-20T06:51:01.494Z,99.90
2019-06-20T06:54:11.211Z,99.90
2019-06-20T06:57:19.462Z,99.90
2019-06-20T07:00:27.415Z,99.90
2019-06-20T07:03:35.406Z,99.90
2019-06-20T07:06:43.475Z,99.90
2019-06-20T07:09:51.407Z,99.90
2019-06-20T07:12:59.594Z,99.90
2019-06-20T07:16:07.584Z,99.90
2019-06-20T07:19:15.763Z,99.90
2019-06-20T07:22:23.526Z,99.90
2019-06-20T07:25:31.583Z,99.90
2019-06-20T07:28:39.616Z,99.90
2019-06-20T07:31:47.844Z,99.90
2019-06-20T07:34:56.045Z,99.90
2019-06-20T07:38:04.428Z,99.90
2019-06-20T07:41:12.268Z,99.90
2019-06-20T07:44:20.237Z,99.90
2019-06-20T07:47:28.126Z,99.90
2019-06-20T07:50:39.345Z,99.90
2019-06-20T07:53:52.026Z,99.90
2019-06-20T07:57:00.726Z,99.90
2019-06-20T08:00:09.537Z,99.90
2019-06-20T08:03:17.828Z,99.90
2019-06-20T08:06:26.690Z,99.90
2019-06-20T08:09:44.950Z,99.90
2019-06-20T08:12:44.576Z,99.90
2019-06-20T08:15:52.514Z,99.90
2019-06-20T08:19:00.413Z,97.90
2019-06-20T08:22:08.397Z,97.00
2019-06-20T08:25:16.931Z,95.90
2019-06-20T08:28:24.999Z,94.60
2019-06-20T08:31:32.976Z,97.90
2019-06-20T08:34:40.903Z,99.90
2019-06-20T08:37:49.017Z,99.90
2019-06-20T08:40:58.322Z,99.90
2019-06-20T08:44:06.834Z,99.00
2019-06-20T08:47:15.909Z,93.20
2019-06-20T08:50:24.091Z,90.20
2019-06-20T08:53:32.015Z,81.00
2019-06-20T08:56:39.980Z,77.50
2019-06-20T08:59:48.049Z,86.90
2019-06-20T09:02:57.353Z,81.40
2019-06-20T09:06:06.987Z,86.30
2019-06-20T09:09:15.226Z,87.30
2019-06-20T09:12:23.139Z,90.10
2019-06-20T09:15:31.108Z,91.40
2019-06-20T09:18:38.932Z,91.00
2019-06-20T09:21:46.976Z,87.20
2019-06-20T09:24:55.518Z,78.40
2019-06-20T09:28:05.313Z,70.80
2019-06-20T09:31:13.308Z,75.70
2019-06-20T09:34:21.173Z,80.70
2019-06-20T09:37:29.538Z,88.80
2019-06-20T09:40:37.467Z,93.40
2019-06-20T09:43:45.309Z,95.30
2019-06-20T09:46:53.954Z,94.80
2019-06-20T09:50:02.285Z,97.90
2019-06-20T09:53:10.124Z,97.40
2019-06-20T09:56:17.956Z,98.70
2019-06-20T09:59:27.923Z,98.30
2019-06-20T10:02:37.049Z,99.90
2019-06-20T10:05:47.145Z,99.90
2019-06-20T10:08:54.765Z,99.90
2019-06-20T10:12:02.959Z,99.70
2019-06-20T10:15:24.703Z,99.00
2019-06-20T10:18:32.716Z,98.90
2019-06-20T10:21:40.595Z,97.20
2019-06-20T10:24:49.171Z,96.20
2019-06-20T10:27:59.282Z,99.30
2019-06-20T10:31:10.002Z,98.20
2019-06-20T10:34:22.942Z,98.30
2019-06-20T10:37:30.908Z,97.90
2019-06-20T10:40:40.963Z,98.90
2019-06-20T10:43:49.568Z,99.70
2019-06-20T10:46:57.831Z,98.40
2019-06-20T10:50:06.867Z,98.80
2019-06-20T10:53:14.745Z,99.70
2019-06-20T10:56:22.775Z,98.10
2019-06-20T10:59:30.632Z,97.70
2019-06-20T11:02:41.696Z,99.50
2019-06-20T11:05:49.884Z,99.10
2019-06-20T11:09:04.336Z,97.30
2019-06-20T11:12:12.211Z,98.00
2019-06-20T11:15:23.918Z,97.60
2019-06-20T11:18:31.829Z,95.90
2019-06-20T11:21:40.175Z,96.10
2019-06-20T11:24:49.449Z,95.30
2019-06-20T11:27:57.392Z,92.90
2019-06-20T11:31:05.372Z,90.10
2019-06-20T11:34:13.260Z,89.00
2019-06-20T11:37:21.166Z,88.70
2019-06-20T11:40:29.231Z,92.50
2019-06-20T11:43:38.374Z,93.70
2019-06-20T11:46:47.156Z,95.00
2019-06-20T11:49:54.877Z,97.50
2019-06-20T11:53:03.245Z,98.40
2019-06-20T11:56:11.162Z,99.70
2019-06-20T11:59:19.019Z,99.90
2019-06-20T12:02:26.820Z,99.50
2019-06-20T12:05:34.668Z,97.70
2019-06-20T12:08:42.686Z,97.70
2019-06-20T12:11:50.572Z,98.40
2019-06-20T12:14:58.432Z,97.20
2019-06-20T12:18:06.499Z,97.70
2019-06-20T12:21:14.460Z,96.60
2019-06-20T12:24:22.519Z,95.60
2019-06-20T12:27:32.231Z,91.50
2019-06-20T12:30:41.618Z,88.30
2019-06-20T12:33:49.627Z,80.40
2019-06-20T12:36:57.635Z,72.10
2019-06-20T12:40:05.968Z,64.50
2019-06-20T12:43:14.204Z,59.30
2019-06-20T12:46:22.446Z,55.30
2019-06-20T12:49:30.694Z,58.20
2019-06-20T12:52:39.588Z,59.30
2019-06-20T12:55:48.251Z,59.30
2019-06-20T12:58:56.683Z,59.80
2019-06-20T13:02:04.932Z,59.70
2019-06-20T13:05:14.725Z,62.30
2019-06-20T13:08:22.585Z,63.50
2019-06-20T13:11:31.011Z,66.10
2019-06-20T13:14:39.661Z,64.70
2019-06-20T13:17:49.322Z,64.90
2019-06-20T13:20:58.227Z,65.20
2019-06-20T13:24:06.099Z,67.60
2019-06-20T13:27:13.927Z,68.90
2019-06-20T13:30:22.594Z,66.60
2019-06-20T13:33:30.568Z,64.70
2019-06-20T13:36:39.887Z,66.10
2019-06-20T13:39:50.053Z,68.00
2019-06-20T13:42:58.175Z,72.50
2019-06-20T13:46:06.331Z,72.20
2019-06-20T13:49:14.201Z,75.00
2019-06-20T13:52:21.996Z,75.70
2019-06-20T13:55:30.027Z,77.20
2019-06-20T13:58:40.520Z,79.60
2019-06-20T14:01:49.021Z,81.20
2019-06-20T14:04:56.821Z,84.30
2019-06-20T14:08:05.164Z,89.40
2019-06-20T14:11:13.433Z,91.80
2019-06-20T14:14:21.414Z,92.40
2019-06-20T14:17:29.549Z,93.50
2019-06-20T14:20:37.650Z,95.00
2019-06-20T14:23:46.205Z,97.40
2019-06-20T14:26:55.342Z,99.50
2019-06-20T14:30:03.720Z,99.90
2019-06-20T14:33:11.964Z,99.90
2019-06-20T14:36:20.177Z,99.90
2019-06-20T14:39:28.050Z,99.90
2019-06-20T14:42:35.921Z,99.90
2019-06-20T14:45:45.520Z,99.90
2019-06-20T14:48:54.299Z,99.90
2019-06-20T14:52:02.526Z,99.90
2019-06-20T14:55:10.874Z,99.90
2019-06-20T14:58:18.931Z,99.90
2019-06-20T15:01:26.757Z,99.90
2019-06-20T15:04:34.617Z,99.90
2019-06-20T15:07:45.033Z,99.90
2019-06-20T15:10:52.126Z,99.90
2019-06-20T15:13:59.944Z,99.90
2019-06-20T15:17:07.720Z,99.90
2019-06-20T15:20:16.255Z,99.90
2019-06-20T15:23:24.768Z,99.90
2019-06-20T15:26:33.992Z,99.90
2019-06-20T15:29:41.969Z,99.90
2019-06-20T15:33:03.986Z,99.90
2019-06-20T15:35:59.293Z,99.90
2019-06-20T15:39:08.059Z,99.90
2019-06-20T15:42:15.901Z,99.90
2019-06-20T15:45:24.112Z,99.90
2019-06-20T15:48:32.333Z,99.90
2019-06-20T15:51:41.534Z,99.90
2019-06-20T15:54:49.735Z,99.90
2019-06-20T15:57:57.534Z,99.90
2019-06-20T16:01:05.351Z,99.90
2019-06-20T16:04:13.419Z,99.90
2019-06-20T16:07:21.181Z,99.90
2019-06-20T16:10:28.960Z,99.90
2019-06-20T16:13:36.719Z,99.90
2019-06-20T16:16:44.645Z,99.90
2019-06-20T16:19:52.886Z,99.90
2019-06-20T16:23:00.986Z,99.90
2019-06-20T16:26:09.573Z,99.90
2019-06-20T16:29:17.368Z,99.90
2019-06-20T16:32:25.465Z,99.90
2019-06-20T16:35:33.566Z,99.90
2019-06-20T16:38:41.728Z,99.90
2019-06-20T16:41:49.602Z,99.90
2019-06-20T16:44:57.388Z,99.90
2019-06-20T16:48:05.298Z,99.90
2019-06-20T16:51:12.965Z,99.90
2019-06-20T16:54:20.775Z,99.90
2019-06-20T16:57:28.420Z,99.90
2019-06-20T17:00:37.620Z,99.90
2019-06-20T17:03:45.311Z,99.90
2019-06-20T17:06:53.086Z,99.90
2019-06-20T17:10:00.836Z,99.90
2019-06-20T17:13:08.666Z,99.90
2019-06-20T17:16:16.449Z,99.90
2019-06-20T17:19:24.276Z,99.90
2019-06-20T17:22:32.407Z,99.90
2019-06-20T17:25:40.305Z,99.90
2019-06-20T17:28:48.029Z,99.90
2019-06-20T17:31:57.515Z,99.90
2019-06-20T17:35:06.906Z,99.90
2019-06-20T17:38:15.380Z,99.90
2019-06-20T17:41:23.264Z,99.90
2019-06-20T17:44:31.100Z,99.90
2019-06-20T17:47:39.074Z,99.90
2019-06-20T17:50:46.893Z,99.90
2019-06-20T17:53:54.577Z,99.90
2019-06-20T17:57:03.116Z,99.90
2019-06-20T18:00:12.126Z,99.90
2019-06-20T18:03:19.788Z,99.90
2019-06-20T18:06:27.536Z,99.90
2019-06-20T18:09:35.683Z,99.90
2019-06-20T18:12:45.258Z,99.90
2019-06-20T18:15:53.022Z,99.90
2019-06-20T18:19:01.039Z,99.90
2019-06-20T18:22:08.917Z,99.90
2019-06-20T18:25:17.184Z,99.90
2019-06-20T18:28:24.916Z,99.90
2019-06-20T18:31:32.678Z,99.90
2019-06-20T18:34:40.544Z,99.90
2019-06-20T18:37:48.298Z,99.90
2019-06-20T18:40:56.175Z,99.90
2019-06-20T18:44:03.924Z,99.90
2019-06-20T18:47:11.706Z,99.90
2019-06-20T18:50:19.614Z,99.90
2019-06-20T18:53:27.372Z,99.90
2019-06-20T18:56:35.245Z,99.90
2019-06-20T18:59:43.354Z,99.90
2019-06-20T19:02:51.724Z,99.90
2019-06-20T19:05:59.611Z,99.90
2019-06-20T19:09:09.708Z,99.90
2019-06-20T19:12:17.452Z,99.90
2019-06-20T19:15:25.931Z,99.90
2019-06-20T19:18:33.661Z,99.90
2019-06-20T19:21:41.457Z,99.90
2019-06-20T19:24:49.528Z,99.90
2019-06-20T19:28:00.770Z,99.90
2019-06-20T19:31:14.351Z,99.90
2019-06-20T19:34:22.101Z,99.90
2019-06-20T19:37:33.468Z,99.90
2019-06-20T19:40:46.474Z,99.90
2019-06-20T19:43:54.460Z,99.90
2019-06-20T19:47:02.317Z,99.90
2019-06-20T19:50:11.153Z,99.90
2019-06-20T19:53:19.092Z,99.90
2019-06-20T19:56:27.180Z,99.90
2019-06-20T19:59:35.760Z,99.90
2019-06-20T20:02:43.807Z,99.90
2019-06-20T20:05:52.312Z,99.90
2019-06-20T20:09:00.059Z,99.90
2019-06-20T20:12:07.955Z,99.90
2019-06-20T20:15:16.053Z,99.90
2019-06-20T20:18:23.874Z,99.90
2019-06-20T20:21:31.980Z,99.90
2019-06-20T20:24:39.893Z,99.90
2019-06-20T20:27:47.719Z,99.90
2019-06-20T20:30:55.568Z,99.90
2019-06-20T20:34:03.271Z,99.90
2019-06-20T20:37:11.479Z,99.90
2019-06-20T20:40:20.473Z,99.90
2019-06-20T20:43:28.444Z,99.90
2019-06-20T20:46:36.594Z,99.90
2019-06-20T20:49:44.579Z,99.90
2019-06-20T20:52:52.729Z,99.90
2019-06-20T20:56:02.513Z,99.90
2019-06-20T20:59:09.966Z,99.90
2019-06-20T21:02:17.701Z,99.90
2019-06-20T21:05:25.597Z,99.90
2019-06-20T21:08:33.505Z,99.90
2019-06-20T21:11:41.871Z,99.90
2019-06-20T21:14:49.667Z,99.90
2019-06-20T21:17:57.428Z,99.90
2019-06-20T21:21:06.740Z,99.90
2019-06-20T21:24:14.520Z,99.90
2019-06-20T21:27:22.352Z,99.90
2019-06-20T21:30:30.751Z,99.90
2019-06-20T21:33:38.573Z,99.90
2019-06-20T21:36:46.227Z,99.90
2019-06-20T21:39:53.934Z,99.90
2019-06-20T21:43:01.664Z,99.90
2019-06-20T21:46:09.549Z,99.90
2019-06-20T21:49:17.430Z,99.90
2019-06-20T21:52:26.475Z,99.90
2019-06-20T21:55:34.656Z,99.90
2019-06-20T21:58:42.737Z,99.90
2019-06-20T22:01:50.477Z,99.90
2019-06-20T22:04:59.208Z,99.90
2019-06-20T22:08:08.434Z,99.90
2019-06-20T22:11:16.625Z,99.90
2019-06-20T22:14:25.222Z,99.90
2019-06-20T22:17:32.903Z,99.90
2019-06-20T22:20:40.880Z,99.90
2019-06-20T22:23:48.880Z,99.90
2019-06-20T22:26:56.651Z,99.90
2019-06-20T22:30:05.769Z,99.90
2019-06-20T22:33:14.099Z,99.90
2019-06-20T22:36:22.285Z,99.90
2019-06-20T22:39:30.058Z,99.90
2019-06-20T22:42:37.801Z,99.90
2019-06-20T22:45:45.902Z,99.90
2019-06-20T22:48:54.296Z,99.90
2019-06-20T22:52:02.183Z,99.90
2019-06-20T22:55:10.591Z,99.90
2019-06-20T22:58:18.666Z,99.90
2019-06-20T23:01:26.624Z,99.90
2019-06-20T23:04:35.843Z,99.90
2019-06-20T23:07:43.797Z,99.90
2019-06-20T23:10:51.976Z,99.90
2019-06-20T23:14:00.032Z,99.90
2019-06-20T23:17:07.901Z,99.90
2019-06-20T23:20:16.810Z,99.90
2019-06-20T23:23:24.759Z,99.90
2019-06-20T23:26:32.509Z,99.90
2019-06-20T23:29:40.611Z,99.90
2019-06-20T23:32:48.722Z,99.90
2019-06-20T23:35:56.596Z,99.90
2019-06-20T23:39:05.425Z,99.90
2019-06-20T23:42:13.225Z,99.90
2019-06-20T23:45:21.175Z,99.90
2019-06-20T23:48:28.991Z,99.90
2019-06-20T23:51:39.842Z,99.90
2019-06-20T23:54:47.520Z,99.90
2019-06-20T23:57:55.507Z,99.90
